sensor_id;sensor_type;location;lat;lon;timestamp;temperature;humidity
68189;DHT22;66299;47.514;19.218;2023-02-28T00:00:36;-1.03;73.88
68189;DHT22;66299;47.514;19.218;2023-02-28T00:03:10;-0.99;73.41
68189;DHT22;66299;47.514;19.218;2023-02-28T00:05:41;-0.94;73.22
68189;DHT22;66299;47.514;19.218;2023-02-28T00:08:11;-0.93;74.13
68189;DHT22;66299;47.514;19.218;2023-02-28T00:10:42;-0.93;74.47
68189;DHT22;66299;47.514;19.218;2023-02-28T00:13:12;-0.96;75.56
68189;DHT22;66299;47.514;19.218;2023-02-28T00:15:41;-0.99;76.02
68189;DHT22;66299;47.514;19.218;2023-02-28T00:18:10;-0.99;75.45
68189;DHT22;66299;47.514;19.218;2023-02-28T00:20:44;-0.99;75.13
68189;DHT22;66299;47.514;19.218;2023-02-28T00:23:12;-1.04;74.66
68189;DHT22;66299;47.514;19.218;2023-02-28T00:25:41;-0.99;74.74
68189;DHT22;66299;47.514;19.218;2023-02-28T00:28:09;-0.94;75.39
68189;DHT22;66299;47.514;19.218;2023-02-28T00:30:39;-0.97;74.95
68189;DHT22;66299;47.514;19.218;2023-02-28T00:33:10;-0.97;75.90
68189;DHT22;66299;47.514;19.218;2023-02-28T00:35:43;-1.01;76.63
68189;DHT22;66299;47.514;19.218;2023-02-28T00:38:16;-0.97;77.10
68189;DHT22;66299;47.514;19.218;2023-02-28T00:40:46;-0.97;76.86
68189;DHT22;66299;47.514;19.218;2023-02-28T00:43:16;-0.92;76.55
68189;DHT22;66299;47.514;19.218;2023-02-28T00:45:46;-0.86;77.16
68189;DHT22;66299;47.514;19.218;2023-02-28T00:48:14;-0.83;77.67
68189;DHT22;66299;47.514;19.218;2023-02-28T00:50:44;-0.83;76.89
68189;DHT22;66299;47.514;19.218;2023-02-28T00:53:12;-0.84;76.74
68189;DHT22;66299;47.514;19.218;2023-02-28T00:55:41;-0.83;76.44
68189;DHT22;66299;47.514;19.218;2023-02-28T00:58:12;-0.82;76.02
68189;DHT22;66299;47.514;19.218;2023-02-28T01:00:42;-0.80;76.39
68189;DHT22;66299;47.514;19.218;2023-02-28T01:03:17;-0.82;75.89
68189;DHT22;66299;47.514;19.218;2023-02-28T01:05:48;-0.80;76.53
68189;DHT22;66299;47.514;19.218;2023-02-28T01:08:19;-0.79;77.26
68189;DHT22;66299;47.514;19.218;2023-02-28T01:10:49;-0.77;76.86
68189;DHT22;66299;47.514;19.218;2023-02-28T01:13:18;-0.74;77.40
68189;DHT22;66299;47.514;19.218;2023-02-28T01:15:53;-0.79;77.65
68189;DHT22;66299;47.514;19.218;2023-02-28T01:18:27;-0.74;77.19
68189;DHT22;66299;47.514;19.218;2023-02-28T01:20:57;-0.79;76.26
68189;DHT22;66299;47.514;19.218;2023-02-28T01:23:26;-0.77;76.16
68189;DHT22;66299;47.514;19.218;2023-02-28T01:25:54;-0.86;75.89
68189;DHT22;66299;47.514;19.218;2023-02-28T01:28:22;-0.86;76.64
68189;DHT22;66299;47.514;19.218;2023-02-28T01:30:52;-0.87;75.30
68189;DHT22;66299;47.514;19.218;2023-02-28T01:33:22;-0.79;74.65
68189;DHT22;66299;47.514;19.218;2023-02-28T01:35:59;-0.80;74.75
68189;DHT22;66299;47.514;19.218;2023-02-28T01:38:29;-0.83;74.64
68189;DHT22;66299;47.514;19.218;2023-02-28T01:41:03;-0.79;74.75
68189;DHT22;66299;47.514;19.218;2023-02-28T01:43:35;-0.77;74.74
68189;DHT22;66299;47.514;19.218;2023-02-28T01:46:20;-0.76;74.66
68189;DHT22;66299;47.514;19.218;2023-02-28T01:48:51;-0.73;74.40
68189;DHT22;66299;47.514;19.218;2023-02-28T01:51:29;-0.74;74.50
68189;DHT22;66299;47.514;19.218;2023-02-28T01:54:02;-0.74;74.37
68189;DHT22;66299;47.514;19.218;2023-02-28T01:56:35;-0.79;74.93
68189;DHT22;66299;47.514;19.218;2023-02-28T01:59:04;-0.82;75.15
68189;DHT22;66299;47.514;19.218;2023-02-28T02:01:35;-0.90;75.81
68189;DHT22;66299;47.514;19.218;2023-02-28T02:04:08;-0.89;75.87
68189;DHT22;66299;47.514;19.218;2023-02-28T02:06:43;-0.87;75.79
68189;DHT22;66299;47.514;19.218;2023-02-28T02:09:14;-0.96;76.13
68189;DHT22;66299;47.514;19.218;2023-02-28T02:11:45;-0.97;75.96
68189;DHT22;66299;47.514;19.218;2023-02-28T02:14:31;-0.89;75.68
68189;DHT22;66299;47.514;19.218;2023-02-28T02:17:10;-0.94;75.97
68189;DHT22;66299;47.514;19.218;2023-02-28T02:20:01;-0.94;75.92
68189;DHT22;66299;47.514;19.218;2023-02-28T02:23:09;-0.87;75.82
68189;DHT22;66299;47.514;19.218;2023-02-28T02:25:50;-0.87;75.80
68189;DHT22;66299;47.514;19.218;2023-02-28T02:28:37;-0.87;75.36
68189;DHT22;66299;47.514;19.218;2023-02-28T02:31:29;-0.84;75.43
68189;DHT22;66299;47.514;19.218;2023-02-28T02:34:30;-0.86;75.55
68189;DHT22;66299;47.514;19.218;2023-02-28T02:37:13;-0.89;75.95
68189;DHT22;66299;47.514;19.218;2023-02-28T02:39:50;-0.80;75.51
68189;DHT22;66299;47.514;19.218;2023-02-28T02:42:28;-0.80;75.84
68189;DHT22;66299;47.514;19.218;2023-02-28T02:45:02;-0.79;75.77
68189;DHT22;66299;47.514;19.218;2023-02-28T02:47:33;-0.76;76.08
68189;DHT22;66299;47.514;19.218;2023-02-28T02:50:10;-0.76;75.79
68189;DHT22;66299;47.514;19.218;2023-02-28T02:52:45;-0.72;75.47
68189;DHT22;66299;47.514;19.218;2023-02-28T02:55:17;-0.73;75.42
68189;DHT22;66299;47.514;19.218;2023-02-28T02:57:48;-0.69;75.16
68189;DHT22;66299;47.514;19.218;2023-02-28T03:00:20;-0.66;75.18
68189;DHT22;66299;47.514;19.218;2023-02-28T03:02:55;-0.68;74.98
68189;DHT22;66299;47.514;19.218;2023-02-28T03:05:36;-0.63;75.09
68189;DHT22;66299;47.514;19.218;2023-02-28T03:08:10;-0.66;74.87
68189;DHT22;66299;47.514;19.218;2023-02-28T03:10:41;-0.63;74.86
68189;DHT22;66299;47.514;19.218;2023-02-28T03:13:30;-0.62;74.73
68189;DHT22;66299;47.514;19.218;2023-02-28T03:19:23;-0.68;75.30
68189;DHT22;66299;47.514;19.218;2023-02-28T03:22:05;-0.65;74.48
68189;DHT22;66299;47.514;19.218;2023-02-28T03:24:43;-0.65;74.70
68189;DHT22;66299;47.514;19.218;2023-02-28T03:27:19;-0.63;74.49
68189;DHT22;66299;47.514;19.218;2023-02-28T03:29:55;-0.62;74.62
68189;DHT22;66299;47.514;19.218;2023-02-28T03:32:29;-0.53;74.27
68189;DHT22;66299;47.514;19.218;2023-02-28T03:35:08;-0.55;74.05
68189;DHT22;66299;47.514;19.218;2023-02-28T03:37:43;-0.49;74.53
68189;DHT22;66299;47.514;19.218;2023-02-28T03:40:15;-0.55;74.52
68189;DHT22;66299;47.514;19.218;2023-02-28T03:42:48;-0.53;74.22
68189;DHT22;66299;47.514;19.218;2023-02-28T03:45:25;-0.62;74.66
68189;DHT22;66299;47.514;19.218;2023-02-28T03:48:02;-0.55;74.90
68189;DHT22;66299;47.514;19.218;2023-02-28T03:50:35;-0.58;74.64
68189;DHT22;66299;47.514;19.218;2023-02-28T03:53:08;-0.56;74.81
68189;DHT22;66299;47.514;19.218;2023-02-28T03:55:42;-0.44;74.99
68189;DHT22;66299;47.514;19.218;2023-02-28T03:58:15;-0.42;75.72
68189;DHT22;66299;47.514;19.218;2023-02-28T04:00:54;-0.45;74.91
68189;DHT22;66299;47.514;19.218;2023-02-28T04:03:24;-0.44;74.87
68189;DHT22;66299;47.514;19.218;2023-02-28T04:05:54;-0.45;74.58
68189;DHT22;66299;47.514;19.218;2023-02-28T04:08:28;-0.49;74.77
68189;DHT22;66299;47.514;19.218;2023-02-28T04:11:00;-0.48;74.65
68189;DHT22;66299;47.514;19.218;2023-02-28T04:13:30;-0.51;75.29
68189;DHT22;66299;47.514;19.218;2023-02-28T04:16:01;-0.53;76.11
68189;DHT22;66299;47.514;19.218;2023-02-28T04:18:47;-0.52;76.55
68189;DHT22;66299;47.514;19.218;2023-02-28T04:21:16;-0.51;76.36
68189;DHT22;66299;47.514;19.218;2023-02-28T04:23:49;-0.62;76.23
68189;DHT22;66299;47.514;19.218;2023-02-28T04:26:17;-0.68;76.87
68189;DHT22;66299;47.514;19.218;2023-02-28T04:28:45;-0.61;76.37
68189;DHT22;66299;47.514;19.218;2023-02-28T04:31:13;-0.56;76.82
68189;DHT22;66299;47.514;19.218;2023-02-28T04:33:43;-0.44;76.61
68189;DHT22;66299;47.514;19.218;2023-02-28T04:36:14;-0.44;76.84
68189;DHT22;66299;47.514;19.218;2023-02-28T04:38:45;-0.41;76.43
68189;DHT22;66299;47.514;19.218;2023-02-28T04:41:16;-0.48;76.53
68189;DHT22;66299;47.514;19.218;2023-02-28T04:43:44;-0.46;76.62
68189;DHT22;66299;47.514;19.218;2023-02-28T04:46:16;-0.46;76.31
68189;DHT22;66299;47.514;19.218;2023-02-28T04:48:45;-0.36;75.76
68189;DHT22;66299;47.514;19.218;2023-02-28T04:51:15;-0.35;75.36
68189;DHT22;66299;47.514;19.218;2023-02-28T04:53:49;-0.29;74.81
68189;DHT22;66299;47.514;19.218;2023-02-28T04:56:19;-0.32;74.85
68189;DHT22;66299;47.514;19.218;2023-02-28T04:58:49;-0.36;74.25
68189;DHT22;66299;47.514;19.218;2023-02-28T05:01:25;-0.35;75.13
68189;DHT22;66299;47.514;19.218;2023-02-28T05:03:56;-0.28;75.03
68189;DHT22;66299;47.514;19.218;2023-02-28T05:06:26;-0.38;75.88
68189;DHT22;66299;47.514;19.218;2023-02-28T05:08:56;-0.36;76.13
68189;DHT22;66299;47.514;19.218;2023-02-28T05:11:28;-0.42;75.98
68189;DHT22;66299;47.514;19.218;2023-02-28T05:14:02;-0.39;75.40
68189;DHT22;66299;47.514;19.218;2023-02-28T05:16:31;-0.42;76.23
68189;DHT22;66299;47.514;19.218;2023-02-28T05:19:01;-0.44;76.38
68189;DHT22;66299;47.514;19.218;2023-02-28T05:21:31;-0.48;76.85
68189;DHT22;66299;47.514;19.218;2023-02-28T05:24:02;-0.53;76.85
68189;DHT22;66299;47.514;19.218;2023-02-28T05:26:34;-0.55;77.24
68189;DHT22;66299;47.514;19.218;2023-02-28T05:29:03;-0.52;76.79
68189;DHT22;66299;47.514;19.218;2023-02-28T05:31:33;-0.48;77.01
68189;DHT22;66299;47.514;19.218;2023-02-28T05:34:03;-0.49;77.10
68189;DHT22;66299;47.514;19.218;2023-02-28T05:36:32;-0.51;77.05
68189;DHT22;66299;47.514;19.218;2023-02-28T05:39:01;-0.53;76.95
68189;DHT22;66299;47.514;19.218;2023-02-28T05:41:31;-0.48;76.68
68189;DHT22;66299;47.514;19.218;2023-02-28T05:44:01;-0.46;76.69
68189;DHT22;66299;47.514;19.218;2023-02-28T05:46:30;-0.44;76.53
68189;DHT22;66299;47.514;19.218;2023-02-28T05:48:59;-0.39;76.43
68189;DHT22;66299;47.514;19.218;2023-02-28T05:51:30;-0.31;76.23
68189;DHT22;66299;47.514;19.218;2023-02-28T05:54:03;-0.32;76.14
68189;DHT22;66299;47.514;19.218;2023-02-28T05:56:32;-0.35;76.19
68189;DHT22;66299;47.514;19.218;2023-02-28T05:59:09;-0.28;76.08
68189;DHT22;66299;47.514;19.218;2023-02-28T06:01:40;-0.21;76.24
68189;DHT22;66299;47.514;19.218;2023-02-28T06:04:10;-0.18;75.95
68189;DHT22;66299;47.514;19.218;2023-02-28T06:06:59;-0.17;76.55
68189;DHT22;66299;47.514;19.218;2023-02-28T06:09:29;-0.17;75.79
68189;DHT22;66299;47.514;19.218;2023-02-28T06:11:58;-0.08;74.79
68189;DHT22;66299;47.514;19.218;2023-02-28T06:14:27;0.02;74.36
68189;DHT22;66299;47.514;19.218;2023-02-28T06:16:58;-0.03;73.59
68189;DHT22;66299;47.514;19.218;2023-02-28T06:19:28;-0.01;73.24
68189;DHT22;66299;47.514;19.218;2023-02-28T06:21:57;0.10;73.45
68189;DHT22;66299;47.514;19.218;2023-02-28T06:24:27;0.11;73.49
68189;DHT22;66299;47.514;19.218;2023-02-28T06:26:57;0.17;72.79
68189;DHT22;66299;47.514;19.218;2023-02-28T06:29:25;0.24;72.62
68189;DHT22;66299;47.514;19.218;2023-02-28T06:31:56;0.33;72.15
68189;DHT22;66299;47.514;19.218;2023-02-28T06:34:25;0.33;72.30
68189;DHT22;66299;47.514;19.218;2023-02-28T06:36:53;0.40;71.97
68189;DHT22;66299;47.514;19.218;2023-02-28T06:39:23;0.38;71.53
68189;DHT22;66299;47.514;19.218;2023-02-28T06:41:52;0.38;70.67
68189;DHT22;66299;47.514;19.218;2023-02-28T06:44:24;0.41;71.18
68189;DHT22;66299;47.514;19.218;2023-02-28T06:46:56;0.55;71.12
68189;DHT22;66299;47.514;19.218;2023-02-28T06:49:26;0.51;70.30
68189;DHT22;66299;47.514;19.218;2023-02-28T06:51:58;0.54;70.09
68189;DHT22;66299;47.514;19.218;2023-02-28T06:54:27;0.62;70.14
68189;DHT22;66299;47.514;19.218;2023-02-28T06:56:59;0.66;70.08
68189;DHT22;66299;47.514;19.218;2023-02-28T06:59:28;0.75;69.58
68189;DHT22;66299;47.514;19.218;2023-02-28T07:01:58;0.81;69.83
68189;DHT22;66299;47.514;19.218;2023-02-28T07:04:27;0.75;69.03
68189;DHT22;66299;47.514;19.218;2023-02-28T07:07:00;0.86;69.30
68189;DHT22;66299;47.514;19.218;2023-02-28T07:09:32;0.97;69.90
68189;DHT22;66299;47.514;19.218;2023-02-28T07:12:02;0.82;68.58
68189;DHT22;66299;47.514;19.218;2023-02-28T07:14:32;0.92;68.92
68189;DHT22;66299;47.514;19.218;2023-02-28T07:17:02;0.95;68.62
68189;DHT22;66299;47.514;19.218;2023-02-28T07:19:31;0.97;68.60
68189;DHT22;66299;47.514;19.218;2023-02-28T07:22:01;1.04;68.03
68189;DHT22;66299;47.514;19.218;2023-02-28T07:24:30;1.12;67.87
68189;DHT22;66299;47.514;19.218;2023-02-28T07:27:01;1.12;67.37
68189;DHT22;66299;47.514;19.218;2023-02-28T07:29:31;1.15;66.78
68189;DHT22;66299;47.514;19.218;2023-02-28T07:32:01;1.30;67.30
68189;DHT22;66299;47.514;19.218;2023-02-28T07:34:29;1.33;66.14
68189;DHT22;66299;47.514;19.218;2023-02-28T07:36:59;1.47;66.08
68189;DHT22;66299;47.514;19.218;2023-02-28T07:39:30;1.62;65.31
68189;DHT22;66299;47.514;19.218;2023-02-28T07:41:59;1.70;65.63
68189;DHT22;66299;47.514;19.218;2023-02-28T07:44:30;1.65;65.51
68189;DHT22;66299;47.514;19.218;2023-02-28T07:47:01;1.78;64.74
68189;DHT22;66299;47.514;19.218;2023-02-28T07:49:31;1.83;64.83
68189;DHT22;66299;47.514;19.218;2023-02-28T07:52:00;2.01;65.08
68189;DHT22;66299;47.514;19.218;2023-02-28T07:54:30;2.09;64.87
68189;DHT22;66299;47.514;19.218;2023-02-28T07:56:59;2.03;64.36
68189;DHT22;66299;47.514;19.218;2023-02-28T07:59:30;2.29;64.40
68189;DHT22;66299;47.514;19.218;2023-02-28T08:02:02;1.95;63.62
68189;DHT22;66299;47.514;19.218;2023-02-28T08:04:34;1.95;63.49
68189;DHT22;66299;47.514;19.218;2023-02-28T08:07:05;2.10;63.31
68189;DHT22;66299;47.514;19.218;2023-02-28T08:09:34;2.20;62.51
68189;DHT22;66299;47.514;19.218;2023-02-28T08:12:02;2.15;62.75
68189;DHT22;66299;47.514;19.218;2023-02-28T08:14:31;1.88;62.92
68189;DHT22;66299;47.514;19.218;2023-02-28T08:17:02;2.18;62.92
68189;DHT22;66299;47.514;19.218;2023-02-28T08:19:31;2.47;63.13
68189;DHT22;66299;47.514;19.218;2023-02-28T08:21:59;2.32;62.57
68189;DHT22;66299;47.514;19.218;2023-02-28T08:24:30;2.58;62.66
68189;DHT22;66299;47.514;19.218;2023-02-28T08:26:58;2.12;62.34
68189;DHT22;66299;47.514;19.218;2023-02-28T08:29:27;2.37;62.24
68189;DHT22;66299;47.514;19.218;2023-02-28T08:31:59;2.43;61.60
68189;DHT22;66299;47.514;19.218;2023-02-28T08:34:29;2.85;62.11
68189;DHT22;66299;47.514;19.218;2023-02-28T08:36:57;3.09;61.71
68189;DHT22;66299;47.514;19.218;2023-02-28T08:39:26;2.88;60.53
68189;DHT22;66299;47.514;19.218;2023-02-28T08:41:56;2.92;61.69
68189;DHT22;66299;47.514;19.218;2023-02-28T08:44:34;3.32;62.41
68189;DHT22;66299;47.514;19.218;2023-02-28T08:47:03;3.46;60.90
68189;DHT22;66299;47.514;19.218;2023-02-28T08:49:37;3.32;61.12
68189;DHT22;66299;47.514;19.218;2023-02-28T08:52:06;3.62;61.65
68189;DHT22;66299;47.514;19.218;2023-02-28T08:54:37;3.36;60.51
68189;DHT22;66299;47.514;19.218;2023-02-28T08:57:06;3.26;61.52
68189;DHT22;66299;47.514;19.218;2023-02-28T08:59:36;3.25;61.19
68189;DHT22;66299;47.514;19.218;2023-02-28T09:02:04;3.49;61.65
68189;DHT22;66299;47.514;19.218;2023-02-28T09:04:35;3.66;60.75
68189;DHT22;66299;47.514;19.218;2023-02-28T09:07:03;3.47;61.02
68189;DHT22;66299;47.514;19.218;2023-02-28T09:09:32;3.74;60.62
68189;DHT22;66299;47.514;19.218;2023-02-28T09:12:03;3.83;60.24
68189;DHT22;66299;47.514;19.218;2023-02-28T09:14:33;3.93;60.27
68189;DHT22;66299;47.514;19.218;2023-02-28T09:17:04;4.06;59.72
68189;DHT22;66299;47.514;19.218;2023-02-28T09:19:36;4.39;60.37
68189;DHT22;66299;47.514;19.218;2023-02-28T09:22:07;4.29;59.72
68189;DHT22;66299;47.514;19.218;2023-02-28T09:24:38;4.11;59.92
68189;DHT22;66299;47.514;19.218;2023-02-28T09:27:08;3.74;60.14
68189;DHT22;66299;47.514;19.218;2023-02-28T09:29:38;4.43;61.05
68189;DHT22;66299;47.514;19.218;2023-02-28T09:32:06;4.32;60.36
68189;DHT22;66299;47.514;19.218;2023-02-28T09:34:37;4.32;60.11
68189;DHT22;66299;47.514;19.218;2023-02-28T09:37:07;4.28;60.28
68189;DHT22;66299;47.514;19.218;2023-02-28T09:39:36;4.43;58.98
68189;DHT22;66299;47.514;19.218;2023-02-28T09:42:11;4.50;58.85
68189;DHT22;66299;47.514;19.218;2023-02-28T09:44:45;4.39;59.66
68189;DHT22;66299;47.514;19.218;2023-02-28T09:47:21;4.92;59.32
68189;DHT22;66299;47.514;19.218;2023-02-28T09:49:59;4.84;59.04
68189;DHT22;66299;47.514;19.218;2023-02-28T09:52:32;5.18;59.13
68189;DHT22;66299;47.514;19.218;2023-02-28T09:55:18;4.35;58.54
68189;DHT22;66299;47.514;19.218;2023-02-28T09:57:47;5.08;58.66
68189;DHT22;66299;47.514;19.218;2023-02-28T10:00:21;4.73;59.13
68189;DHT22;66299;47.514;19.218;2023-02-28T10:03:04;4.48;59.64
68189;DHT22;66299;47.514;19.218;2023-02-28T10:05:38;4.56;59.04
68189;DHT22;66299;47.514;19.218;2023-02-28T10:08:14;4.85;58.84
68189;DHT22;66299;47.514;19.218;2023-02-28T10:10:47;5.04;59.27
68189;DHT22;66299;47.514;19.218;2023-02-28T10:13:23;4.38;60.33
68189;DHT22;66299;47.514;19.218;2023-02-28T10:15:56;4.67;60.42
68189;DHT22;66299;47.514;19.218;2023-02-28T10:18:33;4.85;59.99
68189;DHT22;66299;47.514;19.218;2023-02-28T10:21:17;4.76;60.00
68189;DHT22;66299;47.514;19.218;2023-02-28T10:23:48;5.34;60.01
68189;DHT22;66299;47.514;19.218;2023-02-28T10:26:18;5.32;58.38
68189;DHT22;66299;47.514;19.218;2023-02-28T10:28:46;4.90;58.85
68189;DHT22;66299;47.514;19.218;2023-02-28T10:31:20;4.70;59.46
68189;DHT22;66299;47.514;19.218;2023-02-28T10:33:52;4.41;60.21
68189;DHT22;66299;47.514;19.218;2023-02-28T10:36:23;5.27;60.01
68189;DHT22;66299;47.514;19.218;2023-02-28T10:38:52;5.76;59.91
68189;DHT22;66299;47.514;19.218;2023-02-28T10:41:29;6.01;59.22
68189;DHT22;66299;47.514;19.218;2023-02-28T10:44:14;5.80;58.45
68189;DHT22;66299;47.514;19.218;2023-02-28T10:46:43;5.86;58.96
68189;DHT22;66299;47.514;19.218;2023-02-28T10:49:17;5.97;58.99
68189;DHT22;66299;47.514;19.218;2023-02-28T10:51:52;5.98;59.16
68189;DHT22;66299;47.514;19.218;2023-02-28T10:54:24;5.32;58.53
68189;DHT22;66299;47.514;19.218;2023-02-28T10:57:06;5.62;59.33
68189;DHT22;66299;47.514;19.218;2023-02-28T10:59:37;6.13;58.01
68189;DHT22;66299;47.514;19.218;2023-02-28T11:02:30;6.00;59.39
68189;DHT22;66299;47.514;19.218;2023-02-28T11:05:00;5.62;59.46
68189;DHT22;66299;47.514;19.218;2023-02-28T11:07:30;6.01;58.86
68189;DHT22;66299;47.514;19.218;2023-02-28T11:10:20;5.97;59.92
68189;DHT22;66299;47.514;19.218;2023-02-28T11:12:54;6.03;59.11
68189;DHT22;66299;47.514;19.218;2023-02-28T11:15:28;6.34;58.50
68189;DHT22;66299;47.514;19.218;2023-02-28T11:17:59;6.53;58.55
68189;DHT22;66299;47.514;19.218;2023-02-28T11:20:30;6.20;59.39
68189;DHT22;66299;47.514;19.218;2023-02-28T11:23:12;6.66;57.61
68189;DHT22;66299;47.514;19.218;2023-02-28T11:25:48;6.57;58.99
68189;DHT22;66299;47.514;19.218;2023-02-28T11:28:27;5.79;57.91
68189;DHT22;66299;47.514;19.218;2023-02-28T11:31:05;6.71;58.27
68189;DHT22;66299;47.514;19.218;2023-02-28T11:33:42;6.14;58.46
68189;DHT22;66299;47.514;19.218;2023-02-28T11:36:18;6.27;58.76
68189;DHT22;66299;47.514;19.218;2023-02-28T11:38:48;6.55;60.03
68189;DHT22;66299;47.514;19.218;2023-02-28T11:41:35;6.29;59.03
68189;DHT22;66299;47.514;19.218;2023-02-28T11:44:23;6.29;59.94
68189;DHT22;66299;47.514;19.218;2023-02-28T11:46:59;5.73;60.08
68189;DHT22;66299;47.514;19.218;2023-02-28T11:49:33;5.85;61.11
68189;DHT22;66299;47.514;19.218;2023-02-28T11:52:10;6.07;60.62
68189;DHT22;66299;47.514;19.218;2023-02-28T11:55:07;6.38;60.70
68189;DHT22;66299;47.514;19.218;2023-02-28T11:58:09;6.39;59.72
68189;DHT22;66299;47.514;19.218;2023-02-28T12:00:55;6.55;58.44
68189;DHT22;66299;47.514;19.218;2023-02-28T12:03:37;6.85;58.58
68189;DHT22;66299;47.514;19.218;2023-02-28T12:06:16;7.07;57.58
68189;DHT22;66299;47.514;19.218;2023-02-28T12:08:53;7.27;57.76
68189;DHT22;66299;47.514;19.218;2023-02-28T12:11:38;7.21;57.65
68189;DHT22;66299;47.514;19.218;2023-02-28T12:14:42;7.15;57.13
68189;DHT22;66299;47.514;19.218;2023-02-28T12:17:22;7.03;57.78
68189;DHT22;66299;47.514;19.218;2023-02-28T12:20:02;6.87;57.82
68189;DHT22;66299;47.514;19.218;2023-02-28T12:22:40;7.07;58.10
68189;DHT22;66299;47.514;19.218;2023-02-28T12:25:30;6.32;58.11
68189;DHT22;66299;47.514;19.218;2023-02-28T12:28:10;6.27;59.46
68189;DHT22;66299;47.514;19.218;2023-02-28T12:30:49;6.77;58.17
68189;DHT22;66299;47.514;19.218;2023-02-28T12:33:21;6.76;58.06
68189;DHT22;66299;47.514;19.218;2023-02-28T12:35:55;6.94;57.64
68189;DHT22;66299;47.514;19.218;2023-02-28T12:38:26;6.99;58.22
68189;DHT22;66299;47.514;19.218;2023-02-28T12:40:56;6.82;58.09
68189;DHT22;66299;47.514;19.218;2023-02-28T12:43:33;7.11;58.29
68189;DHT22;66299;47.514;19.218;2023-02-28T12:46:08;7.23;57.41
68189;DHT22;66299;47.514;19.218;2023-02-28T12:48:41;7.06;57.62
68189;DHT22;66299;47.514;19.218;2023-02-28T12:51:11;6.62;58.72
68189;DHT22;66299;47.514;19.218;2023-02-28T12:53:52;6.24;57.91
68189;DHT22;66299;47.514;19.218;2023-02-28T12:56:30;6.57;59.49
68189;DHT22;66299;47.514;19.218;2023-02-28T12:59:13;6.57;58.00
68189;DHT22;66299;47.514;19.218;2023-02-28T13:02:02;6.72;58.37
68189;DHT22;66299;47.514;19.218;2023-02-28T13:04:57;5.94;59.37
68189;DHT22;66299;47.514;19.218;2023-02-28T13:10:39;5.89;59.42
68189;DHT22;66299;47.514;19.218;2023-02-28T13:13:14;5.98;58.96
68189;DHT22;66299;47.514;19.218;2023-02-28T13:15:59;6.42;58.62
68189;DHT22;66299;47.514;19.218;2023-02-28T13:18:34;6.62;59.06
68189;DHT22;66299;47.514;19.218;2023-02-28T13:21:06;5.81;59.55
68189;DHT22;66299;47.514;19.218;2023-02-28T13:23:58;5.87;60.09
68189;DHT22;66299;47.514;19.218;2023-02-28T13:29:37;6.86;58.60
68189;DHT22;66299;47.514;19.218;2023-02-28T13:35:35;6.52;59.35
68189;DHT22;66299;47.514;19.218;2023-02-28T13:38:17;5.98;60.25
68189;DHT22;66299;47.514;19.218;2023-02-28T13:40:45;5.89;60.94
68189;DHT22;66299;47.514;19.218;2023-02-28T13:43:17;5.79;61.91
68189;DHT22;66299;47.514;19.218;2023-02-28T13:46:19;5.46;61.65
68189;DHT22;66299;47.514;19.218;2023-02-28T13:48:48;5.66;61.36
68189;DHT22;66299;47.514;19.218;2023-02-28T13:51:39;5.74;61.28
68189;DHT22;66299;47.514;19.218;2023-02-28T13:54:19;5.74;61.09
68189;DHT22;66299;47.514;19.218;2023-02-28T13:56:55;5.83;61.11
68189;DHT22;66299;47.514;19.218;2023-02-28T13:59:33;6.00;61.28
68189;DHT22;66299;47.514;19.218;2023-02-28T14:02:24;6.01;60.82
68189;DHT22;66299;47.514;19.218;2023-02-28T14:05:04;6.10;60.53
68189;DHT22;66299;47.514;19.218;2023-02-28T14:07:40;5.97;61.00
68189;DHT22;66299;47.514;19.218;2023-02-28T14:10:23;6.08;61.12
68189;DHT22;66299;47.514;19.218;2023-02-28T14:13:02;6.01;60.18
68189;DHT22;66299;47.514;19.218;2023-02-28T14:15:55;6.24;60.57
68189;DHT22;66299;47.514;19.218;2023-02-28T14:18:27;6.25;60.97
68189;DHT22;66299;47.514;19.218;2023-02-28T14:21:11;6.21;60.36
68189;DHT22;66299;47.514;19.218;2023-02-28T14:27:20;6.04;61.92
68189;DHT22;66299;47.514;19.218;2023-02-28T14:30:11;6.14;62.90
68189;DHT22;66299;47.514;19.218;2023-02-28T14:32:49;6.08;62.05
68189;DHT22;66299;47.514;19.218;2023-02-28T14:35:34;6.03;61.82
68189;DHT22;66299;47.514;19.218;2023-02-28T14:38:05;5.97;61.81
68189;DHT22;66299;47.514;19.218;2023-02-28T14:40:38;5.85;62.32
68189;DHT22;66299;47.514;19.218;2023-02-28T14:43:20;5.70;62.44
68189;DHT22;66299;47.514;19.218;2023-02-28T14:45:51;5.70;64.37
68189;DHT22;66299;47.514;19.218;2023-02-28T14:48:21;5.79;63.90
68189;DHT22;66299;47.514;19.218;2023-02-28T14:50:55;5.60;64.17
68189;DHT22;66299;47.514;19.218;2023-02-28T14:53:26;5.50;63.56
68189;DHT22;66299;47.514;19.218;2023-02-28T14:55:57;5.59;64.80
68189;DHT22;66299;47.514;19.218;2023-02-28T14:58:28;5.45;64.69
68189;DHT22;66299;47.514;19.218;2023-02-28T15:00:58;5.53;64.39
68189;DHT22;66299;47.514;19.218;2023-02-28T15:03:33;5.45;64.09
68189;DHT22;66299;47.514;19.218;2023-02-28T15:06:03;5.45;65.18
68189;DHT22;66299;47.514;19.218;2023-02-28T15:08:32;5.38;65.09
68189;DHT22;66299;47.514;19.218;2023-02-28T15:11:11;5.40;64.63
68189;DHT22;66299;47.514;19.218;2023-02-28T15:13:43;5.40;65.45
68189;DHT22;66299;47.514;19.218;2023-02-28T15:16:13;5.24;65.22
68189;DHT22;66299;47.514;19.218;2023-02-28T15:18:46;5.17;65.34
68189;DHT22;66299;47.514;19.218;2023-02-28T15:21:20;5.24;65.55
68189;DHT22;66299;47.514;19.218;2023-02-28T15:23:51;5.17;65.81
68189;DHT22;66299;47.514;19.218;2023-02-28T15:26:25;5.18;66.49
68189;DHT22;66299;47.514;19.218;2023-02-28T15:29:01;5.22;66.79
68189;DHT22;66299;47.514;19.218;2023-02-28T15:31:33;5.19;66.54
68189;DHT22;66299;47.514;19.218;2023-02-28T15:34:22;5.04;67.23
68189;DHT22;66299;47.514;19.218;2023-02-28T15:37:28;5.14;66.79
68189;DHT22;66299;47.514;19.218;2023-02-28T15:40:06;5.17;67.08
68189;DHT22;66299;47.514;19.218;2023-02-28T15:42:37;5.17;67.38
68189;DHT22;66299;47.514;19.218;2023-02-28T15:45:28;5.24;66.57
68189;DHT22;66299;47.514;19.218;2023-02-28T15:48:04;5.14;66.69
68189;DHT22;66299;47.514;19.218;2023-02-28T15:50:40;5.02;67.03
68189;DHT22;66299;47.514;19.218;2023-02-28T15:53:13;5.02;67.48
68189;DHT22;66299;47.514;19.218;2023-02-28T15:55:43;4.87;67.63
68189;DHT22;66299;47.514;19.218;2023-02-28T15:58:21;5.00;67.33
68189;DHT22;66299;47.514;19.218;2023-02-28T16:01:16;4.94;68.16
68189;DHT22;66299;47.514;19.218;2023-02-28T16:03:48;4.83;68.42
68189;DHT22;66299;47.514;19.218;2023-02-28T16:06:36;4.85;68.11
68189;DHT22;66299;47.514;19.218;2023-02-28T16:09:06;4.73;68.82
68189;DHT22;66299;47.514;19.218;2023-02-28T16:11:42;4.67;69.15
68189;DHT22;66299;47.514;19.218;2023-02-28T16:14:17;4.64;69.56
68189;DHT22;66299;47.514;19.218;2023-02-28T16:16:49;4.59;69.80
68189;DHT22;66299;47.514;19.218;2023-02-28T16:19:19;4.62;69.57
68189;DHT22;66299;47.514;19.218;2023-02-28T16:21:48;4.70;69.54
68189;DHT22;66299;47.514;19.218;2023-02-28T16:24:17;4.60;70.15